sensor_id;sensor_type;location;lat;lon;timestamp;P1;durP1;ratioP1;P2;durP2;ratioP2
25932;SDS011;13731;51.166;4.474;2022-09-12T00:01:19;53.88;;;50.67;;
25932;SDS011;13731;51.166;4.474;2022-09-12T00:03:47;52.33;;;49.03;;
25932;SDS011;13731;51.166;4.474;2022-09-12T00:06:17;52.50;;;49.15;;
25932;SDS011;13731;51.166;4.474;2022-09-12T00:08:46;50.95;;;48.05;;
25932;SDS011;13731;51.166;4.474;2022-09-12T00:11:12;48.03;;;45.15;;
25932;SDS011;13731;51.166;4.474;2022-09-12T00:13:39;48.17;;;45.28;;
25932;SDS011;13731;51.166;4.474;2022-09-12T00:16:06;48.08;;;45.08;;
25932;SDS011;13731;51.166;4.474;2022-09-12T00:18:37;44.47;;;41.67;;
25932;SDS011;13731;51.166;4.474;2022-09-12T00:21:03;44.55;;;41.78;;
25932;SDS011;13731;51.166;4.474;2022-09-12T00:23:30;44.10;;;41.42;;
25932;SDS011;13731;51.166;4.474;2022-09-12T00:25:56;45.80;;;42.65;;
25932;SDS011;13731;51.166;4.474;2022-09-12T00:28:23;46.47;;;43.45;;
25932;SDS011;13731;51.166;4.474;2022-09-12T00:30:48;45.85;;;43.08;;
25932;SDS011;13731;51.166;4.474;2022-09-12T00:33:15;44.80;;;41.88;;
25932;SDS011;13731;51.166;4.474;2022-09-12T00:35:45;44.40;;;41.70;;
25932;SDS011;13731;51.166;4.474;2022-09-12T00:38:14;41.17;;;38.35;;
25932;SDS011;13731;51.166;4.474;2022-09-12T00:40:40;46.33;;;43.50;;
25932;SDS011;13731;51.166;4.474;2022-09-12T00:43:14;47.30;;;44.40;;
25932;SDS011;13731;51.166;4.474;2022-09-12T00:46:12;43.10;;;40.45;;
25932;SDS011;13731;51.166;4.474;2022-09-12T00:48:45;43.65;;;40.97;;
25932;SDS011;13731;51.166;4.474;2022-09-12T00:51:16;45.05;;;42.13;;
25932;SDS011;13731;51.166;4.474;2022-09-12T00:53:43;49.50;;;46.40;;
25932;SDS011;13731;51.166;4.474;2022-09-12T00:56:11;53.42;;;50.05;;
25932;SDS011;13731;51.166;4.474;2022-09-12T00:58:41;51.33;;;47.88;;
25932;SDS011;13731;51.166;4.474;2022-09-12T01:01:14;54.50;;;51.10;;
25932;SDS011;13731;51.166;4.474;2022-09-12T01:03:40;51.13;;;48.15;;
25932;SDS011;13731;51.166;4.474;2022-09-12T01:06:16;50.50;;;47.25;;
25932;SDS011;13731;51.166;4.474;2022-09-12T01:08:46;50.88;;;47.78;;
25932;SDS011;13731;51.166;4.474;2022-09-12T01:11:12;53.45;;;50.38;;
25932;SDS011;13731;51.166;4.474;2022-09-12T01:13:40;56.92;;;53.50;;
25932;SDS011;13731;51.166;4.474;2022-09-12T01:16:06;57.88;;;54.17;;
25932;SDS011;13731;51.166;4.474;2022-09-12T01:21:30;60.40;;;56.67;;
25932;SDS011;13731;51.166;4.474;2022-09-12T01:33:00;55.53;;;52.20;;
25932;SDS011;13731;51.166;4.474;2022-09-12T01:38:35;57.22;;;53.58;;
25932;SDS011;13731;51.166;4.474;2022-09-12T01:43:35;67.80;;;63.85;;
25932;SDS011;13731;51.166;4.474;2022-09-12T01:46:17;60.22;;;56.63;;
25932;SDS011;13731;51.166;4.474;2022-09-12T01:51:40;77.97;;;73.35;;
25932;SDS011;13731;51.166;4.474;2022-09-12T01:54:15;90.00;;;85.05;;
25932;SDS011;13731;51.166;4.474;2022-09-12T01:56:45;94.75;;;89.65;;
25932;SDS011;13731;51.166;4.474;2022-09-12T01:59:17;101.13;;;95.72;;
25932;SDS011;13731;51.166;4.474;2022-09-12T02:01:57;102.32;;;96.78;;
25932;SDS011;13731;51.166;4.474;2022-09-12T02:07:24;101.45;;;96.00;;
25932;SDS011;13731;51.166;4.474;2022-09-12T02:10:01;105.43;;;99.88;;
25932;SDS011;13731;51.166;4.474;2022-09-12T02:12:36;102.70;;;97.13;;
25932;SDS011;13731;51.166;4.474;2022-09-12T02:15:08;105.15;;;99.40;;
25932;SDS011;13731;51.166;4.474;2022-09-12T02:17:37;105.93;;;100.18;;
25932;SDS011;13731;51.166;4.474;2022-09-12T02:20:11;107.38;;;101.72;;
25932;SDS011;13731;51.166;4.474;2022-09-12T02:22:40;101.32;;;95.75;;
25932;SDS011;13731;51.166;4.474;2022-09-12T02:25:08;92.22;;;87.20;;
25932;SDS011;13731;51.166;4.474;2022-09-12T02:27:40;96.25;;;90.88;;
25932;SDS011;13731;51.166;4.474;2022-09-12T02:30:14;99.03;;;93.78;;
25932;SDS011;13731;51.166;4.474;2022-09-12T02:35:46;100.80;;;95.03;;
25932;SDS011;13731;51.166;4.474;2022-09-12T02:38:27;92.05;;;86.93;;
25932;SDS011;13731;51.166;4.474;2022-09-12T02:40:58;90.00;;;84.75;;
25932;SDS011;13731;51.166;4.474;2022-09-12T02:43:24;89.00;;;83.85;;
25932;SDS011;13731;51.166;4.474;2022-09-12T02:45:51;89.95;;;84.53;;
25932;SDS011;13731;51.166;4.474;2022-09-12T02:48:18;84.50;;;79.40;;
25932;SDS011;13731;51.166;4.474;2022-09-12T02:50:48;85.95;;;81.03;;
25932;SDS011;13731;51.166;4.474;2022-09-12T02:53:14;85.90;;;80.63;;
25932;SDS011;13731;51.166;4.474;2022-09-12T02:55:40;79.18;;;74.30;;
25932;SDS011;13731;51.166;4.474;2022-09-12T02:58:11;72.25;;;68.03;;
25932;SDS011;13731;51.166;4.474;2022-09-12T03:03:37;69.40;;;65.05;;
25932;SDS011;13731;51.166;4.474;2022-09-12T03:06:15;67.43;;;63.17;;
25932;SDS011;13731;51.166;4.474;2022-09-12T03:08:52;64.97;;;60.47;;
25932;SDS011;13731;51.166;4.474;2022-09-12T03:11:50;64.78;;;60.55;;
25932;SDS011;13731;51.166;4.474;2022-09-12T03:17:24;74.65;;;69.88;;
25932;SDS011;13731;51.166;4.474;2022-09-12T03:22:27;88.80;;;83.07;;
25932;SDS011;13731;51.166;4.474;2022-09-12T03:27:39;87.50;;;82.47;;
25932;SDS011;13731;51.166;4.474;2022-09-12T03:30:30;89.72;;;84.07;;
25932;SDS011;13731;51.166;4.474;2022-09-12T03:33:01;100.88;;;94.82;;
25932;SDS011;13731;51.166;4.474;2022-09-12T03:35:27;112.25;;;105.85;;
25932;SDS011;13731;51.166;4.474;2022-09-12T03:37:53;108.45;;;101.90;;
25932;SDS011;13731;51.166;4.474;2022-09-12T03:40:19;115.25;;;108.55;;
25932;SDS011;13731;51.166;4.474;2022-09-12T03:42:45;107.35;;;100.65;;
25932;SDS011;13731;51.166;4.474;2022-09-12T03:45:11;102.13;;;95.85;;
25932;SDS011;13731;51.166;4.474;2022-09-12T03:47:36;96.45;;;90.35;;
25932;SDS011;13731;51.166;4.474;2022-09-12T03:50:02;95.60;;;89.80;;
25932;SDS011;13731;51.166;4.474;2022-09-12T03:52:29;94.43;;;88.60;;
25932;SDS011;13731;51.166;4.474;2022-09-12T03:54:54;93.10;;;87.15;;
25932;SDS011;13731;51.166;4.474;2022-09-12T03:57:20;89.90;;;84.18;;
25932;SDS011;13731;51.166;4.474;2022-09-12T03:59:47;87.65;;;82.13;;
25932;SDS011;13731;51.166;4.474;2022-09-12T04:02:14;87.28;;;81.60;;
25932;SDS011;13731;51.166;4.474;2022-09-12T04:04:40;88.35;;;82.40;;
25932;SDS011;13731;51.166;4.474;2022-09-12T04:07:12;84.65;;;78.75;;
25932;SDS011;13731;51.166;4.474;2022-09-12T04:09:37;86.93;;;81.15;;
25932;SDS011;13731;51.166;4.474;2022-09-12T04:12:03;100.38;;;93.68;;
25932;SDS011;13731;51.166;4.474;2022-09-12T04:14:29;100.47;;;93.95;;
25932;SDS011;13731;51.166;4.474;2022-09-12T04:16:55;99.03;;;92.65;;
25932;SDS011;13731;51.166;4.474;2022-09-12T04:19:21;94.45;;;88.22;;
25932;SDS011;13731;51.166;4.474;2022-09-12T04:21:47;103.00;;;96.60;;
25932;SDS011;13731;51.166;4.474;2022-09-12T04:24:13;106.55;;;99.55;;
25932;SDS011;13731;51.166;4.474;2022-09-12T04:26:39;92.30;;;85.90;;
25932;SDS011;13731;51.166;4.474;2022-09-12T04:29:05;99.97;;;93.47;;
25932;SDS011;13731;51.166;4.474;2022-09-12T04:31:31;106.80;;;99.50;;
25932;SDS011;13731;51.166;4.474;2022-09-12T04:33:58;106.95;;;99.90;;
25932;SDS011;13731;51.166;4.474;2022-09-12T04:36:25;107.15;;;100.38;;
25932;SDS011;13731;51.166;4.474;2022-09-12T04:38:52;107.13;;;99.85;;
25932;SDS011;13731;51.166;4.474;2022-09-12T04:41:23;116.32;;;109.22;;
25932;SDS011;13731;51.166;4.474;2022-09-12T04:43:51;111.00;;;103.90;;
25932;SDS011;13731;51.166;4.474;2022-09-12T04:46:19;93.13;;;86.97;;
25932;SDS011;13731;51.166;4.474;2022-09-12T04:48:46;102.30;;;95.45;;
25932;SDS011;13731;51.166;4.474;2022-09-12T04:51:14;100.53;;;93.53;;
25932;SDS011;13731;51.166;4.474;2022-09-12T04:53:47;93.32;;;86.82;;
25932;SDS011;13731;51.166;4.474;2022-09-12T04:56:15;87.45;;;81.25;;
25932;SDS011;13731;51.166;4.474;2022-09-12T04:58:41;81.57;;;75.38;;
25932;SDS011;13731;51.166;4.474;2022-09-12T05:01:08;85.15;;;79.35;;
25932;SDS011;13731;51.166;4.474;2022-09-12T05:03:36;91.60;;;85.20;;
25932;SDS011;13731;51.166;4.474;2022-09-12T05:06:07;89.60;;;83.50;;
25932;SDS011;13731;51.166;4.474;2022-09-12T05:08:34;90.95;;;84.55;;
25932;SDS011;13731;51.166;4.474;2022-09-12T05:11:01;90.28;;;83.85;;
25932;SDS011;13731;51.166;4.474;2022-09-12T05:13:31;91.55;;;84.97;;
25932;SDS011;13731;51.166;4.474;2022-09-12T05:15:58;97.45;;;90.85;;
25932;SDS011;13731;51.166;4.474;2022-09-12T05:18:25;89.22;;;82.68;;
25932;SDS011;13731;51.166;4.474;2022-09-12T05:20:52;91.82;;;85.50;;
25932;SDS011;13731;51.166;4.474;2022-09-12T05:23:19;87.18;;;80.90;;
25932;SDS011;13731;51.166;4.474;2022-09-12T05:25:52;94.18;;;87.68;;
25932;SDS011;13731;51.166;4.474;2022-09-12T05:28:19;88.22;;;82.00;;
25932;SDS011;13731;51.166;4.474;2022-09-12T05:30:46;91.30;;;84.82;;
25932;SDS011;13731;51.166;4.474;2022-09-12T05:33:13;91.35;;;84.57;;
25932;SDS011;13731;51.166;4.474;2022-09-12T05:35:39;94.05;;;87.47;;
25932;SDS011;13731;51.166;4.474;2022-09-12T05:38:06;93.45;;;86.53;;
25932;SDS011;13731;51.166;4.474;2022-09-12T05:40:32;101.60;;;94.93;;
25932;SDS011;13731;51.166;4.474;2022-09-12T05:42:58;105.93;;;98.80;;
25932;SDS011;13731;51.166;4.474;2022-09-12T05:45:24;105.90;;;99.07;;
25932;SDS011;13731;51.166;4.474;2022-09-12T05:47:51;98.82;;;92.28;;
25932;SDS011;13731;51.166;4.474;2022-09-12T05:50:18;105.22;;;98.45;;
25932;SDS011;13731;51.166;4.474;2022-09-12T05:52:45;98.45;;;91.97;;
25932;SDS011;13731;51.166;4.474;2022-09-12T05:55:10;101.10;;;94.20;;
25932;SDS011;13731;51.166;4.474;2022-09-12T05:57:36;98.97;;;92.22;;
25932;SDS011;13731;51.166;4.474;2022-09-12T06:00:03;101.70;;;94.82;;
25932;SDS011;13731;51.166;4.474;2022-09-12T06:02:37;103.05;;;96.28;;
25932;SDS011;13731;51.166;4.474;2022-09-12T06:05:03;109.85;;;103.03;;
25932;SDS011;13731;51.166;4.474;2022-09-12T06:07:29;105.30;;;98.57;;
25932;SDS011;13731;51.166;4.474;2022-09-12T06:09:56;101.20;;;94.97;;
25932;SDS011;13731;51.166;4.474;2022-09-12T06:12:23;103.22;;;96.72;;
25932;SDS011;13731;51.166;4.474;2022-09-12T06:17:18;67.47;;;62.15;;
25932;SDS011;13731;51.166;4.474;2022-09-12T06:19:44;69.55;;;64.18;;
25932;SDS011;13731;51.166;4.474;2022-09-12T06:22:10;80.82;;;75.20;;
25932;SDS011;13731;51.166;4.474;2022-09-12T06:24:36;101.90;;;95.20;;
25932;SDS011;13731;51.166;4.474;2022-09-12T06:27:01;111.97;;;104.68;;
25932;SDS011;13731;51.166;4.474;2022-09-12T06:29:27;125.68;;;117.75;;
25932;SDS011;13731;51.166;4.474;2022-09-12T06:31:53;114.25;;;106.60;;
25932;SDS011;13731;51.166;4.474;2022-09-12T06:34:19;133.60;;;125.35;;
25932;SDS011;13731;51.166;4.474;2022-09-12T06:36:45;123.60;;;115.80;;
25932;SDS011;13731;51.166;4.474;2022-09-12T06:39:16;131.07;;;122.57;;
25932;SDS011;13731;51.166;4.474;2022-09-12T06:41:48;130.63;;;122.70;;
25932;SDS011;13731;51.166;4.474;2022-09-12T06:44:16;152.20;;;143.40;;
25932;SDS011;13731;51.166;4.474;2022-09-12T06:46:44;151.30;;;142.60;;
25932;SDS011;13731;51.166;4.474;2022-09-12T06:49:10;155.63;;;146.55;;
25932;SDS011;13731;51.166;4.474;2022-09-12T06:51:39;174.43;;;164.23;;
25932;SDS011;13731;51.166;4.474;2022-09-12T06:54:06;135.45;;;127.10;;
25932;SDS011;13731;51.166;4.474;2022-09-12T06:56:32;122.72;;;115.43;;
25932;SDS011;13731;51.166;4.474;2022-09-12T06:58:58;141.95;;;133.43;;
25932;SDS011;13731;51.166;4.474;2022-09-12T07:01:25;89.97;;;84.05;;
25932;SDS011;13731;51.166;4.474;2022-09-12T07:03:56;89.28;;;83.68;;
25932;SDS011;13731;51.166;4.474;2022-09-12T07:06:24;87.95;;;82.18;;
25932;SDS011;13731;51.166;4.474;2022-09-12T07:08:56;78.63;;;73.63;;
25932;SDS011;13731;51.166;4.474;2022-09-12T07:11:24;84.30;;;77.78;;
25932;SDS011;13731;51.166;4.474;2022-09-12T07:13:52;67.20;;;62.53;;
25932;SDS011;13731;51.166;4.474;2022-09-12T07:16:20;66.88;;;62.72;;
25932;SDS011;13731;51.166;4.474;2022-09-12T07:18:50;82.03;;;76.45;;
25932;SDS011;13731;51.166;4.474;2022-09-12T07:21:18;98.65;;;92.20;;
25932;SDS011;13731;51.166;4.474;2022-09-12T07:23:44;63.75;;;59.70;;
25932;SDS011;13731;51.166;4.474;2022-09-12T07:26:10;89.15;;;83.18;;
25932;SDS011;13731;51.166;4.474;2022-09-12T07:28:37;52.35;;;48.55;;
25932;SDS011;13731;51.166;4.474;2022-09-12T07:31:12;63.88;;;59.40;;
25932;SDS011;13731;51.166;4.474;2022-09-12T07:33:39;75.15;;;70.63;;
25932;SDS011;13731;51.166;4.474;2022-09-12T07:36:07;80.70;;;75.00;;
25932;SDS011;13731;51.166;4.474;2022-09-12T07:38:37;67.28;;;62.78;;
25932;SDS011;13731;51.166;4.474;2022-09-12T07:43:36;100.32;;;94.70;;
25932;SDS011;13731;51.166;4.474;2022-09-12T07:46:02;91.10;;;85.40;;
25932;SDS011;13731;51.166;4.474;2022-09-12T07:48:28;99.20;;;92.93;;
25932;SDS011;13731;51.166;4.474;2022-09-12T07:50:57;111.75;;;105.72;;
25932;SDS011;13731;51.166;4.474;2022-09-12T07:53:32;55.90;;;52.17;;
25932;SDS011;13731;51.166;4.474;2022-09-12T07:56:01;62.13;;;58.17;;
25932;SDS011;13731;51.166;4.474;2022-09-12T08:03:33;60.47;;;56.90;;
25932;SDS011;13731;51.166;4.474;2022-09-12T08:06:03;65.88;;;62.15;;
25932;SDS011;13731;51.166;4.474;2022-09-12T08:08:30;62.22;;;58.38;;
25932;SDS011;13731;51.166;4.474;2022-09-12T08:10:57;93.97;;;88.93;;
25932;SDS011;13731;51.166;4.474;2022-09-12T08:13:24;79.43;;;74.82;;
25932;SDS011;13731;51.166;4.474;2022-09-12T08:15:51;113.00;;;107.18;;
25932;SDS011;13731;51.166;4.474;2022-09-12T08:18:20;303.42;;;287.35;;
25932;SDS011;13731;51.166;4.474;2022-09-12T08:20:46;221.73;;;210.18;;
25932;SDS011;13731;51.166;4.474;2022-09-12T08:23:12;245.15;;;232.98;;
25932;SDS011;13731;51.166;4.474;2022-09-12T08:25:38;194.80;;;185.55;;
25932;SDS011;13731;51.166;4.474;2022-09-12T08:28:04;190.73;;;181.48;;
25932;SDS011;13731;51.166;4.474;2022-09-12T08:30:30;145.35;;;137.93;;
25932;SDS011;13731;51.166;4.474;2022-09-12T08:32:56;185.40;;;176.27;;
25932;SDS011;13731;51.166;4.474;2022-09-12T08:35:22;153.00;;;145.30;;
25932;SDS011;13731;51.166;4.474;2022-09-12T08:37:48;162.75;;;154.88;;
25932;SDS011;13731;51.166;4.474;2022-09-12T08:40:14;177.68;;;169.10;;
25932;SDS011;13731;51.166;4.474;2022-09-12T08:43:02;168.25;;;160.13;;
25932;SDS011;13731;51.166;4.474;2022-09-12T08:45:37;323.42;;;307.20;;
25932;SDS011;13731;51.166;4.474;2022-09-12T08:48:14;206.43;;;196.43;;
25932;SDS011;13731;51.166;4.474;2022-09-12T08:50:40;132.57;;;125.68;;
25932;SDS011;13731;51.166;4.474;2022-09-12T08:53:12;125.60;;;119.45;;
25932;SDS011;13731;51.166;4.474;2022-09-12T08:55:44;100.45;;;95.55;;
25932;SDS011;13731;51.166;4.474;2022-09-12T08:58:16;112.60;;;107.15;;
25932;SDS011;13731;51.166;4.474;2022-09-12T09:00:59;83.65;;;79.25;;
25932;SDS011;13731;51.166;4.474;2022-09-12T09:09:23;55.25;;;52.33;;
25932;SDS011;13731;51.166;4.474;2022-09-12T09:22:45;39.90;;;37.75;;
25932;SDS011;13731;51.166;4.474;2022-09-12T09:25:21;164.25;;;155.73;;
25932;SDS011;13731;51.166;4.474;2022-09-12T09:28:33;47.25;;;44.63;;
25932;SDS011;13731;51.166;4.474;2022-09-12T09:30:48;70.45;;;66.97;;
25932;SDS011;13731;51.166;4.474;2022-09-12T09:33:20;79.60;;;75.72;;
25932;SDS011;13731;51.166;4.474;2022-09-12T09:35:50;186.32;;;176.88;;
25932;SDS011;13731;51.166;4.474;2022-09-12T09:38:44;205.25;;;194.98;;
25932;SDS011;13731;51.166;4.474;2022-09-12T09:41:38;256.33;;;243.52;;
25932;SDS011;13731;51.166;4.474;2022-09-12T09:44:26;226.73;;;215.52;;
25932;SDS011;13731;51.166;4.474;2022-09-12T09:46:54;448.45;;;421.90;;
25932;SDS011;13731;51.166;4.474;2022-09-12T09:49:22;350.50;;;332.77;;
25932;SDS011;13731;51.166;4.474;2022-09-12T09:54:19;256.75;;;244.48;;
25932;SDS011;13731;51.166;4.474;2022-09-12T09:56:48;214.93;;;204.65;;
25932;SDS011;13731;51.166;4.474;2022-09-12T09:59:18;229.60;;;218.77;;
25932;SDS011;13731;51.166;4.474;2022-09-12T10:01:56;243.43;;;231.57;;
25932;SDS011;13731;51.166;4.474;2022-09-12T10:04:31;288.63;;;274.30;;
25932;SDS011;13731;51.166;4.474;2022-09-12T10:07:00;194.23;;;185.05;;
25932;SDS011;13731;51.166;4.474;2022-09-12T10:09:29;123.50;;;117.53;;
25932;SDS011;13731;51.166;4.474;2022-09-12T10:11:59;93.68;;;89.18;;
25932;SDS011;13731;51.166;4.474;2022-09-12T10:14:59;91.78;;;87.30;;
25932;SDS011;13731;51.166;4.474;2022-09-12T10:19:57;75.47;;;71.72;;
25932;SDS011;13731;51.166;4.474;2022-09-12T10:22:24;72.15;;;68.65;;
25932;SDS011;13731;51.166;4.474;2022-09-12T10:24:54;57.35;;;54.53;;
25932;SDS011;13731;51.166;4.474;2022-09-12T10:27:31;26.88;;;25.52;;
25932;SDS011;13731;51.166;4.474;2022-09-12T10:30:13;19.23;;;18.23;;
25932;SDS011;13731;51.166;4.474;2022-09-12T10:32:45;17.85;;;16.75;;
25932;SDS011;13731;51.166;4.474;2022-09-12T10:35:27;18.85;;;17.77;;
25932;SDS011;13731;51.166;4.474;2022-09-12T10:38:11;24.73;;;23.63;;
25932;SDS011;13731;51.166;4.474;2022-09-12T10:40:42;27.20;;;25.90;;
25932;SDS011;13731;51.166;4.474;2022-09-12T10:45:50;47.03;;;44.88;;
25932;SDS011;13731;51.166;4.474;2022-09-12T10:48:28;28.83;;;27.52;;
25932;SDS011;13731;51.166;4.474;2022-09-12T10:50:58;37.97;;;36.08;;
25932;SDS011;13731;51.166;4.474;2022-09-12T10:53:31;57.70;;;54.90;;
25932;SDS011;13731;51.166;4.474;2022-09-12T10:56:09;61.33;;;58.65;;
25932;SDS011;13731;51.166;4.474;2022-09-12T11:01:34;36.70;;;34.83;;
25932;SDS011;13731;51.166;4.474;2022-09-12T11:12:33;22.80;;;21.80;;
25932;SDS011;13731;51.166;4.474;2022-09-12T11:23:57;24.98;;;23.73;;
25932;SDS011;13731;51.166;4.474;2022-09-12T11:29:28;24.98;;;23.77;;
25932;SDS011;13731;51.166;4.474;2022-09-12T11:37:29;14.30;;;13.50;;
25932;SDS011;13731;51.166;4.474;2022-09-12T11:40:13;16.33;;;15.52;;
25932;SDS011;13731;51.166;4.474;2022-09-12T11:42:44;21.48;;;20.27;;
25932;SDS011;13731;51.166;4.474;2022-09-12T11:45:12;12.93;;;12.25;;
25932;SDS011;13731;51.166;4.474;2022-09-12T11:47:43;12.25;;;11.70;;
25932;SDS011;13731;51.166;4.474;2022-09-12T11:50:23;12.32;;;11.20;;
25932;SDS011;13731;51.166;4.474;2022-09-12T11:52:54;11.98;;;11.32;;
25932;SDS011;13731;51.166;4.474;2022-09-12T11:55:28;15.15;;;14.38;;
25932;SDS011;13731;51.166;4.474;2022-09-12T11:58:11;12.98;;;12.20;;
25932;SDS011;13731;51.166;4.474;2022-09-12T12:00:40;14.00;;;13.35;;
25932;SDS011;13731;51.166;4.474;2022-09-12T12:06:20;14.27;;;13.65;;
25932;SDS011;13731;51.166;4.474;2022-09-12T12:08:52;11.40;;;10.70;;
25932;SDS011;13731;51.166;4.474;2022-09-12T12:11:29;11.13;;;10.18;;
25932;SDS011;13731;51.166;4.474;2022-09-12T12:17:11;10.05;;;9.50;;
25932;SDS011;13731;51.166;4.474;2022-09-12T12:19:41;11.02;;;10.20;;
25932;SDS011;13731;51.166;4.474;2022-09-12T12:22:13;9.25;;;8.65;;
25932;SDS011;13731;51.166;4.474;2022-09-12T12:27:54;9.93;;;9.32;;
25932;SDS011;13731;51.166;4.474;2022-09-12T12:32:58;9.95;;;9.30;;
25932;SDS011;13731;51.166;4.474;2022-09-12T12:35:38;14.52;;;13.88;;
25932;SDS011;13731;51.166;4.474;2022-09-12T12:38:25;23.58;;;22.42;;
25932;SDS011;13731;51.166;4.474;2022-09-12T12:43:52;43.90;;;41.80;;
25932;SDS011;13731;51.166;4.474;2022-09-12T12:46:21;33.33;;;31.65;;
25932;SDS011;13731;51.166;4.474;2022-09-12T12:54:08;26.58;;;25.42;;
25932;SDS011;13731;51.166;4.474;2022-09-12T13:00:24;26.67;;;25.30;;
25932;SDS011;13731;51.166;4.474;2022-09-12T13:05:37;23.95;;;22.52;;
25932;SDS011;13731;51.166;4.474;2022-09-12T13:10:50;71.93;;;68.55;;
25932;SDS011;13731;51.166;4.474;2022-09-12T13:13:34;111.60;;;106.43;;
25932;SDS011;13731;51.166;4.474;2022-09-12T13:16:08;126.18;;;120.55;;
25932;SDS011;13731;51.166;4.474;2022-09-12T13:18:45;84.07;;;80.38;;
25932;SDS011;13731;51.166;4.474;2022-09-12T13:21:19;64.57;;;61.60;;
25932;SDS011;13731;51.166;4.474;2022-09-12T13:24:05;95.25;;;90.97;;
25932;SDS011;13731;51.166;4.474;2022-09-12T13:26:40;103.88;;;99.35;;
25932;SDS011;13731;51.166;4.474;2022-09-12T13:31:41;88.40;;;84.45;;
25932;SDS011;13731;51.166;4.474;2022-09-12T13:34:09;111.53;;;106.53;;
25932;SDS011;13731;51.166;4.474;2022-09-12T13:39:46;60.88;;;58.03;;
25932;SDS011;13731;51.166;4.474;2022-09-12T13:44:49;52.65;;;50.40;;
25932;SDS011;13731;51.166;4.474;2022-09-12T13:47:28;40.05;;;38.30;;
25932;SDS011;13731;51.166;4.474;2022-09-12T13:50:27;20.92;;;19.77;;
25932;SDS011;13731;51.166;4.474;2022-09-12T13:55:33;15.75;;;14.93;;
25932;SDS011;13731;51.166;4.474;2022-09-12T13:58:05;20.63;;;19.63;;
25932;SDS011;13731;51.166;4.474;2022-09-12T14:00:40;34.75;;;33.25;;
25932;SDS011;13731;51.166;4.474;2022-09-12T14:06:10;50.80;;;48.53;;
25932;SDS011;13731;51.166;4.474;2022-09-12T14:08:40;78.28;;;74.82;;
25932;SDS011;13731;51.166;4.474;2022-09-12T14:11:08;57.72;;;54.88;;
25932;SDS011;13731;51.166;4.474;2022-09-12T14:13:35;58.47;;;55.38;;
25932;SDS011;13731;51.166;4.474;2022-09-12T14:16:05;53.58;;;51.15;;
25932;SDS011;13731;51.166;4.474;2022-09-12T14:18:37;61.60;;;58.92;;
25932;SDS011;13731;51.166;4.474;2022-09-12T14:21:09;87.28;;;83.13;;
25932;SDS011;13731;51.166;4.474;2022-09-12T14:23:40;107.32;;;102.50;;
25932;SDS011;13731;51.166;4.474;2022-09-12T14:26:10;148.35;;;141.75;;
25932;SDS011;13731;51.166;4.474;2022-09-12T14:28:40;143.25;;;136.70;;
25932;SDS011;13731;51.166;4.474;2022-09-12T14:36:52;80.63;;;76.95;;
25932;SDS011;13731;51.166;4.474;2022-09-12T14:44:20;57.08;;;54.17;;
25932;SDS011;13731;51.166;4.474;2022-09-12T14:46:49;74.45;;;71.15;;
25932;SDS011;13731;51.166;4.474;2022-09-12T14:49:36;97.93;;;93.47;;
25932;SDS011;13731;51.166;4.474;2022-09-12T14:52:02;86.65;;;82.82;;
25932;SDS011;13731;51.166;4.474;2022-09-12T14:57:01;70.40;;;67.32;;
25932;SDS011;13731;51.166;4.474;2022-09-12T15:02:10;37.15;;;35.33;;
25932;SDS011;13731;51.166;4.474;2022-09-12T15:04:40;37.95;;;35.88;;
25932;SDS011;13731;51.166;4.474;2022-09-12T15:07:33;32.35;;;30.88;;
25932;SDS011;13731;51.166;4.474;2022-09-12T15:10:00;48.55;;;46.33;;
25932;SDS011;13731;51.166;4.474;2022-09-12T15:12:30;66.68;;;63.70;;
25932;SDS011;13731;51.166;4.474;2022-09-12T15:14:59;67.25;;;64.20;;
25932;SDS011;13731;51.166;4.474;2022-09-12T15:17:36;66.53;;;63.63;;
25932;SDS011;13731;51.166;4.474;2022-09-12T15:20:03;59.78;;;56.75;;
25932;SDS011;13731;51.166;4.474;2022-09-12T15:22:29;59.67;;;56.55;;
25932;SDS011;13731;51.166;4.474;2022-09-12T15:24:57;66.17;;;63.27;;
25932;SDS011;13731;51.166;4.474;2022-09-12T15:27:23;72.13;;;68.57;;
25932;SDS011;13731;51.166;4.474;2022-09-12T15:29:54;66.97;;;63.83;;
25932;SDS011;13731;51.166;4.474;2022-09-12T15:32:23;68.00;;;64.68;;
25932;SDS011;13731;51.166;4.474;2022-09-12T15:34:50;77.25;;;73.85;;
25932;SDS011;13731;51.166;4.474;2022-09-12T15:37:21;76.80;;;73.43;;
25932;SDS011;13731;51.166;4.474;2022-09-12T15:39:48;74.57;;;70.95;;
25932;SDS011;13731;51.166;4.474;2022-09-12T15:42:14;97.07;;;92.40;;
25932;SDS011;13731;51.166;4.474;2022-09-12T15:44:42;98.20;;;93.53;;
25932;SDS011;13731;51.166;4.474;2022-09-12T15:47:09;103.38;;;98.82;;
25932;SDS011;13731;51.166;4.474;2022-09-12T15:49:37;101.68;;;97.22;;
25932;SDS011;13731;51.166;4.474;2022-09-12T15:52:05;101.28;;;96.60;;
25932;SDS011;13731;51.166;4.474;2022-09-12T15:54:32;95.60;;;90.97;;
25932;SDS011;13731;51.166;4.474;2022-09-12T15:56:58;99.10;;;94.53;;
25932;SDS011;13731;51.166;4.474;2022-09-12T15:59:23;97.55;;;93.05;;
25932;SDS011;13731;51.166;4.474;2022-09-12T16:01:49;96.95;;;92.60;;
25932;SDS011;13731;51.166;4.474;2022-09-12T16:04:22;105.72;;;101.15;;
25932;SDS011;13731;51.166;4.474;2022-09-12T16:06:49;104.65;;;99.78;;
25932;SDS011;13731;51.166;4.474;2022-09-12T16:09:16;106.55;;;101.72;;
25932;SDS011;13731;51.166;4.474;2022-09-12T16:11:42;118.32;;;113.07;;
25932;SDS011;13731;51.166;4.474;2022-09-12T16:14:09;108.57;;;103.65;;
25932;SDS011;13731;51.166;4.474;2022-09-12T16:16:39;115.90;;;110.75;;
25932;SDS011;13731;51.166;4.474;2022-09-12T16:19:05;106.07;;;101.20;;
25932;SDS011;13731;51.166;4.474;2022-09-12T16:21:32;90.30;;;86.25;;
25932;SDS011;13731;51.166;4.474;2022-09-12T16:23:58;55.05;;;52.60;;
25932;SDS011;13731;51.166;4.474;2022-09-12T16:26:24;34.35;;;32.70;;
25932;SDS011;13731;51.166;4.474;2022-09-12T16:28:56;21.10;;;19.85;;
25932;SDS011;13731;51.166;4.474;2022-09-12T16:31:23;18.83;;;17.77;;
25932;SDS011;13731;51.166;4.474;2022-09-12T16:33:50;18.45;;;17.52;;
25932;SDS011;13731;51.166;4.474;2022-09-12T16:36:17;25.77;;;24.65;;
25932;SDS011;13731;51.166;4.474;2022-09-12T16:38:51;44.75;;;42.85;;
25932;SDS011;13731;51.166;4.474;2022-09-12T16:41:19;57.15;;;54.55;;
25932;SDS011;13731;51.166;4.474;2022-09-12T16:43:46;69.28;;;66.00;;
25932;SDS011;13731;51.166;4.474;2022-09-12T16:46:16;59.60;;;57.00;;
25932;SDS011;13731;51.166;4.474;2022-09-12T16:48:47;63.80;;;61.00;;
25932;SDS011;13731;51.166;4.474;2022-09-12T16:51:15;53.05;;;50.58;;
25932;SDS011;13731;51.166;4.474;2022-09-12T16:53:47;43.75;;;41.72;;
25932;SDS011;13731;51.166;4.474;2022-09-12T16:56:13;44.70;;;42.67;;
25932;SDS011;13731;51.166;4.474;2022-09-12T16:58:40;40.75;;;38.97;;
25932;SDS011;13731;51.166;4.474;2022-09-12T17:01:07;38.20;;;36.17;;
25932;SDS011;13731;51.166;4.474;2022-09-12T17:03:34;34.20;;;32.70;;
25932;SDS011;13731;51.166;4.474;2022-09-12T17:06:04;33.92;;;32.28;;
25932;SDS011;13731;51.166;4.474;2022-09-12T17:08:35;32.97;;;31.48;;
25932;SDS011;13731;51.166;4.474;2022-09-12T17:13:33;23.35;;;22.17;;
25932;SDS011;13731;51.166;4.474;2022-09-12T17:15:59;23.90;;;22.67;;